Time;durP1;ratioP1;P1;durP2;ratioP2;P2;SDS_P1;SDS_P2;PMS_P1;PMS_P2;Temp;Humidity;BMP_temperature;BMP_pressure;BME280_temperature;BME280_humidity;BME280_pressure;Samples;Min_cycle;Max_cycle;Signal;HPM_P1;HPM_P2
2021/10/17 00:00:51;;;;;;;13.43;4.80;;;11.50;75.20;;;;;;5055346;28;20017;-77
2021/10/17 00:03:18;;;;;;;15.95;5.15;;;11.50;75.30;;;;;;5055213;28;20053;-77
2021/10/17 00:05:44;;;;;;;13.00;4.60;;;11.50;75.40;;;;;;5054781;28;20461;-76
2021/10/17 00:08:09;;;;;;;9.53;4.10;;;11.40;75.40;;;;;;5044406;28;20047;-76
2021/10/17 00:10:36;;;;;;;12.03;4.77;;;11.50;75.80;;;;;;5055060;28;20500;-77
2021/10/17 00:13:05;;;;;;;12.23;4.80;;;11.50;75.90;;;;;;5055914;28;20032;-77
2021/10/17 00:15:32;;;;;;;9.30;4.32;;;11.50;75.80;;;;;;5054361;28;20021;-77
2021/10/17 00:18:00;;;;;;;16.97;5.70;;;11.50;75.80;;;;;;5054276;28;20033;-76
2021/10/17 00:20:25;;;;;;;12.10;4.50;;;11.40;76.30;;;;;;5056075;28;20049;-76
2021/10/17 00:22:52;;;;;;;10.80;5.03;;;11.40;75.80;;;;;;5075421;28;20060;-75
2021/10/17 00:25:18;;;;;;;10.17;4.33;;;11.40;75.80;;;;;;5075729;28;20025;-76
2021/10/17 00:27:45;;;;;;;15.37;4.53;;;11.30;75.70;;;;;;5058078;28;20024;-76
2021/10/17 00:30:12;;;;;;;11.60;4.50;;;11.40;75.70;;;;;;5075191;28;20028;-76
2021/10/17 00:32:38;;;;;;;10.43;4.57;;;11.30;75.70;;;;;;5058101;28;20024;-76
2021/10/17 00:35:05;;;;;;;13.53;4.37;;;11.30;76.30;;;;;;5074196;28;20480;-76
2021/10/17 00:37:32;;;;;;;13.50;4.23;;;11.30;75.80;;;;;;5057776;28;20532;-76
2021/10/17 00:39:59;;;;;;;12.97;4.27;;;11.30;75.80;;;;;;5073438;28;20042;-76
2021/10/17 00:42:25;;;;;;;10.18;3.72;;;11.30;75.70;;;;;;5074405;28;20114;-77
2021/10/17 00:45:03;;;;;;;13.57;4.70;;;11.30;75.70;;;;;;5069788;28;20472;-76
2021/10/17 00:47:29;;;;;;;13.53;4.23;;;11.30;75.80;;;;;;5070386;28;20100;-77
2021/10/17 00:49:54;;;;;;;11.35;4.57;;;11.30;75.70;;;;;;5054978;28;20104;-76
2021/10/17 00:52:21;;;;;;;11.13;4.17;;;11.30;76.00;;;;;;5054969;28;20040;-77
2021/10/17 00:54:47;;;;;;;14.60;4.97;;;11.40;76.50;;;;;;5054096;28;20074;-76
2021/10/17 00:57:14;;;;;;;14.37;4.53;;;11.40;76.40;;;;;;5054377;28;20029;-77
2021/10/17 00:59:40;;;;;;;15.38;4.63;;;11.40;76.40;;;;;;5049570;28;20036;-77
2021/10/17 01:02:06;;;;;;;10.90;5.17;;;11.30;76.40;;;;;;5054922;28;20032;-77
2021/10/17 01:04:33;;;;;;;12.83;4.70;;;11.30;76.40;;;;;;5053326;28;20025;-77
2021/10/17 01:06:58;;;;;;;9.90;4.67;;;11.40;76.50;;;;;;5053755;28;20108;-77
2021/10/17 01:09:24;;;;;;;10.37;4.83;;;11.30;76.70;;;;;;5063041;28;20096;-77
2021/10/17 01:11:50;;;;;;;13.10;5.27;;;11.30;76.80;;;;;;5069269;28;20039;-76
2021/10/17 01:14:17;;;;;;;11.53;4.10;;;11.20;76.70;;;;;;5053847;28;20037;-78
2021/10/17 01:16:44;;;;;;;14.53;4.50;;;11.30;76.70;;;;;;5053061;28;20162;-77
2021/10/17 01:19:11;;;;;;;12.20;4.47;;;11.20;76.60;;;;;;5037271;28;20037;-76
2021/10/17 01:21:41;;;;;;;12.07;4.10;;;11.20;76.50;;;;;;5054780;28;20033;-76
2021/10/17 01:24:08;;;;;;;12.53;4.47;;;11.20;76.50;;;;;;5053214;28;20017;-76
2021/10/17 01:26:34;;;;;;;10.67;4.37;;;11.20;76.50;;;;;;5053227;28;20024;-77
2021/10/17 01:29:00;;;;;;;10.30;4.13;;;11.10;76.40;;;;;;5054299;28;20469;-77
2021/10/17 01:31:37;;;;;;;13.90;4.80;;;11.20;76.50;;;;;;5053394;28;20033;-77
2021/10/17 01:34:04;;;;;;;11.23;4.27;;;11.20;76.50;;;;;;5055371;28;20055;-75
2021/10/17 01:36:30;;;;;;;12.65;4.43;;;11.10;76.40;;;;;;5056684;28;20070;-75
2021/10/17 01:38:56;;;;;;;11.70;4.63;;;11.20;76.40;;;;;;5072515;28;20063;-75
2021/10/17 01:41:22;;;;;;;11.13;4.13;;;11.10;76.40;;;;;;5072706;28;20020;-75
2021/10/17 01:43:48;;;;;;;12.95;4.57;;;11.10;76.40;;;;;;5073154;28;20233;-75
2021/10/17 01:46:13;;;;;;;13.23;4.73;;;11.20;76.40;;;;;;5072899;28;20128;-75
2021/10/17 01:48:39;;;;;;;13.03;4.40;;;11.20;76.50;;;;;;5050770;28;20025;-75
2021/10/17 01:51:05;;;;;;;13.57;4.90;;;11.20;76.50;;;;;;5052090;28;20029;-75
2021/10/17 01:53:30;;;;;;;11.67;4.00;;;11.20;76.60;;;;;;5059126;28;20040;-75
2021/10/17 01:55:57;;;;;;;15.90;4.80;;;11.20;76.60;;;;;;5071009;28;20137;-75
2021/10/17 01:58:23;;;;;;;12.93;4.40;;;11.20;77.10;;;;;;5072276;28;20361;-75
2021/10/17 02:00:49;;;;;;;13.37;4.20;;;11.20;76.30;;;;;;5056190;28;20031;-75
2021/10/17 02:03:15;;;;;;;14.87;4.43;;;11.20;76.30;;;;;;5055540;28;20036;-75
2021/10/17 02:05:41;;;;;;;12.80;4.37;;;11.20;76.30;;;;;;5055969;28;20024;-75
2021/10/17 02:08:06;;;;;;;11.57;4.57;;;11.10;76.20;;;;;;5067824;28;20033;-75
2021/10/17 02:10:32;;;;;;;12.40;4.40;;;11.20;76.40;;;;;;5054029;28;20079;-75
2021/10/17 02:12:58;;;;;;;13.00;4.23;;;11.20;76.30;;;;;;5053861;28;20040;-75
2021/10/17 02:15:24;;;;;;;16.10;4.40;;;11.20;76.40;;;;;;5053782;28;20029;-75
2021/10/17 02:17:49;;;;;;;14.97;4.30;;;11.20;76.70;;;;;;5052928;28;20488;-77
2021/10/17 02:20:15;;;;;;;10.83;3.47;;;11.20;76.80;;;;;;5074025;28;20098;-77
2021/10/17 02:22:41;;;;;;;10.47;4.10;;;11.20;76.80;;;;;;5072768;28;20024;-77
2021/10/17 02:25:07;;;;;;;10.63;3.90;;;11.20;76.80;;;;;;5072321;28;20028;-77
2021/10/17 02:27:33;;;;;;;11.83;4.20;;;11.20;76.90;;;;;;5073859;28;20055;-76
2021/10/17 02:29:59;;;;;;;11.30;4.90;;;11.20;77.10;;;;;;5072200;28;20032;-76
2021/10/17 02:32:24;;;;;;;10.50;4.13;;;11.20;77.20;;;;;;5072204;28;20029;-76
2021/10/17 02:34:50;;;;;;;8.70;4.00;;;11.20;77.40;;;;;;5068751;28;20508;-76
2021/10/17 02:37:16;;;;;;;12.73;4.27;;;11.20;77.50;;;;;;5053218;28;20036;-76
2021/10/17 02:39:42;;;;;;;9.57;4.10;;;11.20;77.80;;;;;;5053526;28;20052;-74
2021/10/17 02:42:08;;;;;;;12.27;4.10;;;11.20;77.70;;;;;;5053601;28;20384;-74
2021/10/17 02:44:33;;;;;;;11.97;4.23;;;11.20;77.60;;;;;;5035751;28;20123;-74
2021/10/17 02:47:00;;;;;;;11.65;4.03;;;11.20;77.40;;;;;;5035711;28;20037;-74
2021/10/17 02:49:26;;;;;;;12.37;4.00;;;11.10;77.30;;;;;;5052242;28;20033;-73
2021/10/17 02:51:52;;;;;;;11.30;4.27;;;11.20;77.30;;;;;;5052433;28;20091;-74
2021/10/17 02:54:18;;;;;;;13.10;4.37;;;11.20;77.20;;;;;;5052148;28;20050;-73
2021/10/17 02:56:44;;;;;;;10.43;4.23;;;11.20;77.10;;;;;;5035539;28;20033;-75
2021/10/17 02:59:10;;;;;;;15.82;4.70;;;11.10;76.90;;;;;;5063817;28;20055;-74
2021/10/17 03:01:35;;;;;;;13.23;4.93;;;11.10;76.90;;;;;;5073054;28;20033;-75
2021/10/17 03:04:01;;;;;;;10.83;4.17;;;11.10;76.80;;;;;;5042383;28;20020;-74
2021/10/17 03:06:28;;;;;;;14.87;4.60;;;11.10;76.70;;;;;;5059260;28;20086;-75
2021/10/17 03:08:54;;;;;;;13.73;4.77;;;11.00;76.70;;;;;;5074468;28;20410;-74
2021/10/17 03:11:21;;;;;;;9.23;3.67;;;11.10;76.80;;;;;;5056979;28;20045;-74
2021/10/17 03:13:47;;;;;;;9.10;4.00;;;11.10;76.80;;;;;;5055815;28;20427;-74
2021/10/17 03:16:13;;;;;;;14.53;4.27;;;11.00;76.80;;;;;;5057162;28;20027;-74
2021/10/17 03:18:39;;;;;;;11.90;4.23;;;11.00;77.10;;;;;;5055699;28;20025;-74
2021/10/17 03:21:05;;;;;;;11.80;4.17;;;11.00;77.40;;;;;;5056835;28;20047;-74
2021/10/17 03:23:31;;;;;;;14.03;4.23;;;11.00;77.60;;;;;;5039131;28;20029;-74
2021/10/17 03:25:57;;;;;;;12.63;4.80;;;11.00;77.70;;;;;;5038879;28;20024;-74
2021/10/17 03:28:23;;;;;;;13.37;4.40;;;11.00;77.60;;;;;;5039121;28;20032;-74
2021/10/17 03:30:51;;;;;;;10.53;4.37;;;11.00;77.70;;;;;;5055798;28;20028;-74
2021/10/17 03:33:16;;;;;;;16.00;4.77;;;11.00;77.90;;;;;;5039015;28;20393;-74
2021/10/17 03:35:42;;;;;;;11.20;4.17;;;11.00;78.20;;;;;;5055545;28;20033;-74
2021/10/17 03:38:08;;;;;;;14.60;4.63;;;11.00;78.20;;;;;;5056454;28;20036;-76
2021/10/17 03:40:33;;;;;;;14.17;5.90;;;11.00;78.20;;;;;;5055430;28;20036;-76
2021/10/17 03:42:59;;;;;;;10.67;5.03;;;10.90;78.10;;;;;;5055196;28;20074;-76
2021/10/17 03:45:25;;;;;;;10.77;4.37;;;10.90;78.10;;;;;;5059367;28;20093;-76
2021/10/17 03:47:50;;;;;;;17.67;5.90;;;10.90;78.20;;;;;;5075331;28;20040;-77
2021/10/17 03:50:16;;;;;;;11.30;5.03;;;11.00;78.60;;;;;;5075476;28;20087;-77
2021/10/17 03:52:42;;;;;;;9.70;4.30;;;10.90;78.60;;;;;;5075986;28;20029;-76
2021/10/17 03:55:08;;;;;;;11.90;4.00;;;10.90;78.80;;;;;;5071159;28;20475;-77
2021/10/17 03:57:33;;;;;;;11.87;5.10;;;10.90;78.60;;;;;;5074876;28;20032;-77
2021/10/17 03:59:59;;;;;;;15.60;5.30;;;11.00;78.70;;;;;;5057878;28;20571;-77
2021/10/17 04:02:25;;;;;;;10.73;4.70;;;10.90;78.60;;;;;;5058020;28;20029;-77
2021/10/17 04:04:50;;;;;;;11.20;4.60;;;10.80;78.60;;;;;;5074864;28;20028;-77
2021/10/17 04:07:16;;;;;;;16.17;5.83;;;10.80;78.60;;;;;;5072781;28;20041;-77
2021/10/17 04:09:41;;;;;;;13.17;5.07;;;10.80;78.50;;;;;;5071003;28;20066;-77
2021/10/17 04:12:07;;;;;;;14.00;5.33;;;10.80;78.50;;;;;;5054517;28;20047;-75
2021/10/17 04:14:32;;;;;;;12.57;4.70;;;10.80;78.50;;;;;;5070356;28;20504;-74
2021/10/17 04:16:58;;;;;;;14.77;5.37;;;10.80;78.60;;;;;;5054528;28;20406;-75
2021/10/17 04:19:24;;;;;;;14.93;4.87;;;10.70;78.50;;;;;;5054577;28;20048;-76
2021/10/17 04:21:49;;;;;;;12.10;5.13;;;10.80;78.60;;;;;;5054568;28;20060;-76
2021/10/17 04:24:15;;;;;;;14.80;5.53;;;10.80;78.90;;;;;;5054756;28;20072;-76
2021/10/17 04:26:40;;;;;;;14.23;5.60;;;10.70;78.80;;;;;;5071343;28;20609;-76
2021/10/17 04:29:06;;;;;;;14.23;5.80;;;10.70;79.00;;;;;;5055393;28;20037;-76
2021/10/17 04:31:32;;;;;;;14.07;5.70;;;10.80;79.00;;;;;;5054581;28;20044;-76
2021/10/17 04:33:57;;;;;;;15.93;5.73;;;10.80;78.90;;;;;;5056003;28;20071;-76
2021/10/17 04:36:23;;;;;;;14.03;6.03;;;10.70;78.90;;;;;;5054460;28;20033;-76
2021/10/17 04:38:51;;;;;;;14.43;5.17;;;10.60;79.00;;;;;;5037687;28;20082;-77
2021/10/17 04:41:17;;;;;;;13.33;5.37;;;10.60;79.00;;;;;;5071513;28;20116;-76
2021/10/17 04:43:43;;;;;;;12.93;5.30;;;10.60;79.00;;;;;;5054388;28;20112;-77
2021/10/17 04:46:08;;;;;;;13.40;5.77;;;10.60;79.10;;;;;;5054488;28;20418;-77
2021/10/17 04:48:34;;;;;;;13.73;5.83;;;10.60;79.80;;;;;;5055685;28;20059;-76
2021/10/17 04:51:00;;;;;;;15.67;5.33;;;10.60;79.30;;;;;;5054287;28;20128;-77
2021/10/17 04:53:25;;;;;;;12.40;6.07;;;10.60;79.50;;;;;;5055413;28;20108;-76
2021/10/17 04:55:51;;;;;;;13.50;5.40;;;10.60;79.60;;;;;;5053954;28;20392;-76
2021/10/17 04:58:16;;;;;;;14.50;6.17;;;10.60;79.50;;;;;;5054133;28;20487;-76
2021/10/17 05:00:42;;;;;;;13.90;5.90;;;10.60;79.40;;;;;;5054084;28;20037;-76
2021/10/17 05:03:09;;;;;;;16.03;6.60;;;10.50;79.30;;;;;;5054248;28;20025;-77
2021/10/17 05:05:34;;;;;;;15.47;5.83;;;10.60;79.40;;;;;;5054824;28;20040;-77
2021/10/17 05:08:01;;;;;;;12.57;5.87;;;10.50;79.30;;;;;;5054698;28;20033;-77
2021/10/17 05:10:26;;;;;;;11.87;5.33;;;10.50;79.40;;;;;;5054971;28;20048;-77
2021/10/17 05:12:52;;;;;;;13.80;5.30;;;10.50;79.40;;;;;;5053497;28;20078;-77
2021/10/17 05:15:18;;;;;;;15.50;5.23;;;10.50;79.60;;;;;;5069948;28;20481;-77
2021/10/17 05:17:43;;;;;;;13.53;5.83;;;10.50;79.60;;;;;;5053831;28;20033;-76
2021/10/17 05:20:10;;;;;;;15.97;5.57;;;10.50;79.50;;;;;;5053558;28;20469;-77
2021/10/17 05:22:35;;;;;;;15.03;5.77;;;10.50;79.50;;;;;;5054712;28;20469;-75
2021/10/17 05:25:01;;;;;;;14.40;5.50;;;10.40;79.50;;;;;;5053297;28;20032;-75
2021/10/17 05:27:27;;;;;;;12.07;4.80;;;10.50;79.90;;;;;;5054897;28;20545;-75
2021/10/17 05:29:52;;;;;;;10.77;4.70;;;10.50;79.90;;;;;;5054740;28;20496;-75
2021/10/17 05:32:20;;;;;;;25.17;6.80;;;10.40;80.00;;;;;;5070236;28;20033;-75
2021/10/17 05:34:45;;;;;;;11.60;5.43;;;10.40;80.20;;;;;;5053753;28;20061;-75
2021/10/17 05:37:11;;;;;;;9.40;5.30;;;10.40;80.40;;;;;;5060734;28;20476;-75
2021/10/17 05:39:37;;;;;;;12.60;5.70;;;10.40;81.00;;;;;;5073329;28;20028;-75
2021/10/17 05:42:04;;;;;;;15.03;5.87;;;10.40;80.50;;;;;;5068104;28;20032;-75
2021/10/17 05:44:30;;;;;;;19.77;7.00;;;10.40;80.60;;;;;;5053287;28;20138;-75
2021/10/17 05:46:56;;;;;;;11.97;4.53;;;10.40;81.30;;;;;;5052883;28;20081;-75
2021/10/17 05:49:21;;;;;;;12.43;5.93;;;10.40;80.90;;;;;;5053014;28;20037;-75
2021/10/17 05:51:47;;;;;;;14.03;5.83;;;10.40;80.90;;;;;;5054248;28;20542;-75
2021/10/17 05:54:13;;;;;;;17.87;5.90;;;10.30;80.90;;;;;;5036121;28;20118;-75
2021/10/17 05:56:38;;;;;;;11.20;5.57;;;10.30;81.70;;;;;;5053940;28;20033;-75
2021/10/17 05:59:08;;;;;;;10.80;5.07;;;10.30;81.80;;;;;;5035981;28;20036;-75
2021/10/17 06:01:35;;;;;;;15.90;5.93;;;10.30;81.30;;;;;;5052915;28;20037;-75
2021/10/17 06:04:00;;;;;;;12.57;5.43;;;10.30;81.40;;;;;;5052957;28;20033;-75
2021/10/17 06:06:26;;;;;;;11.77;5.47;;;10.30;81.60;;;;;;5052983;28;20037;-75
2021/10/17 06:08:54;;;;;;;14.30;5.83;;;10.30;81.70;;;;;;5052958;28;20029;-75
2021/10/17 06:11:20;;;;;;;15.00;6.80;;;10.40;81.80;;;;;;5053552;28;20040;-75
2021/10/17 06:13:45;;;;;;;12.57;5.97;;;10.30;81.80;;;;;;5053089;28;20447;-76
2021/10/17 06:16:11;;;;;;;16.37;5.73;;;10.30;81.80;;;;;;5054198;28;20079;-76
2021/10/17 06:18:37;;;;;;;16.23;6.70;;;10.30;81.80;;;;;;5053883;28;20065;-76
2021/10/17 06:21:02;;;;;;;11.47;6.00;;;10.20;81.70;;;;;;5052380;28;20029;-76
2021/10/17 06:23:28;;;;;;;11.97;6.00;;;10.30;81.60;;;;;;5052752;28;20033;-76
2021/10/17 06:25:54;;;;;;;17.03;6.87;;;10.30;81.60;;;;;;5052299;28;20373;-76
2021/10/17 06:28:19;;;;;;;13.67;5.97;;;10.20;81.50;;;;;;5053890;28;20039;-76
2021/10/17 06:30:45;;;;;;;16.80;6.40;;;10.20;81.60;;;;;;5052290;28;20040;-75
2021/10/17 06:33:11;;;;;;;19.27;6.40;;;10.30;81.70;;;;;;5052578;28;20416;-75
2021/10/17 06:35:36;;;;;;;15.27;6.00;;;10.20;81.50;;;;;;5035853;28;20037;-76
2021/10/17 06:38:02;;;;;;;16.80;7.10;;;10.30;81.60;;;;;;5056121;28;20082;-75
2021/10/17 06:40:28;;;;;;;13.83;5.67;;;10.30;81.50;;;;;;5058156;28;20368;-75
2021/10/17 06:42:53;;;;;;;15.97;6.23;;;10.30;81.50;;;;;;5072169;28;20036;-75
2021/10/17 06:45:19;;;;;;;13.17;5.53;;;10.30;81.50;;;;;;5071800;28;20028;-76
2021/10/17 06:47:44;;;;;;;12.63;6.63;;;10.30;81.40;;;;;;5071845;28;20032;-75
2021/10/17 06:50:10;;;;;;;17.37;6.80;;;10.30;81.20;;;;;;5072504;28;20110;-74
2021/10/17 06:52:36;;;;;;;11.70;5.13;;;10.40;81.90;;;;;;5072327;28;20489;-74
2021/10/17 06:55:01;;;;;;;12.00;5.73;;;10.40;81.20;;;;;;5071982;28;20465;-75
2021/10/17 06:57:27;;;;;;;15.13;6.30;;;10.40;81.20;;;;;;5055318;28;20082;-74
2021/10/17 06:59:52;;;;;;;17.70;6.40;;;10.40;81.00;;;;;;5073167;28;20028;-74
2021/10/17 07:02:18;;;;;;;11.53;5.40;;;10.40;80.90;;;;;;5071990;28;20043;-74
2021/10/17 07:04:43;;;;;;;12.20;5.70;;;10.50;80.90;;;;;;5073210;28;20063;-74
2021/10/17 07:07:09;;;;;;;14.27;5.83;;;10.50;80.90;;;;;;5051731;28;20608;-75
2021/10/17 07:09:35;;;;;;;13.77;5.73;;;10.50;80.90;;;;;;5061413;28;20175;-75
2021/10/17 07:12:00;;;;;;;15.80;6.23;;;10.60;80.80;;;;;;5053130;28;20037;-76
2021/10/17 07:14:26;;;;;;;12.80;5.27;;;10.60;80.80;;;;;;5056017;28;20036;-76
2021/10/17 07:16:51;;;;;;;12.93;5.43;;;10.60;81.40;;;;;;5068476;28;20045;-76
2021/10/17 07:19:17;;;;;;;15.67;4.70;;;10.60;80.80;;;;;;5035813;28;20364;-76
2021/10/17 07:21:42;;;;;;;11.50;6.13;;;10.70;80.70;;;;;;5037130;28;20036;-74
2021/10/17 07:24:08;;;;;;;13.83;5.50;;;10.70;80.60;;;;;;5039902;28;20036;-75
2021/10/17 07:26:34;;;;;;;14.33;5.27;;;10.70;80.50;;;;;;5019928;28;20021;-73
2021/10/17 07:28:59;;;;;;;13.33;5.43;;;10.80;80.40;;;;;;5052629;28;20021;-74
2021/10/17 07:31:25;;;;;;;12.33;5.63;;;10.80;80.40;;;;;;5053164;28;20456;-74
2021/10/17 07:33:50;;;;;;;15.27;5.17;;;10.80;80.20;;;;;;5019558;28;20052;-74
2021/10/17 07:36:16;;;;;;;17.87;5.90;;;10.80;80.20;;;;;;5038984;28;20057;-74
2021/10/17 07:38:42;;;;;;;14.67;5.30;;;10.90;80.20;;;;;;5070040;28;20036;-75
2021/10/17 07:41:07;;;;;;;12.03;5.60;;;10.90;80.00;;;;;;5069650;28;20036;-75
2021/10/17 07:43:33;;;;;;;13.40;5.93;;;11.00;80.00;;;;;;5069311;28;20075;-75
2021/10/17 07:46:02;;;;;;;13.13;4.97;;;11.00;79.80;;;;;;5069713;28;20029;-74
2021/10/17 07:48:29;;;;;;;12.37;5.13;;;11.00;79.70;;;;;;5070012;28;20035;-74
2021/10/17 07:50:55;;;;;;;14.97;5.50;;;11.20;79.60;;;;;;5072435;28;20021;-75
2021/10/17 07:53:20;;;;;;;11.90;6.00;;;11.20;79.40;;;;;;5056151;28;20096;-76
2021/10/17 07:55:46;;;;;;;15.75;5.70;;;11.30;79.30;;;;;;5071617;28;20036;-75
2021/10/17 07:58:11;;;;;;;12.57;4.97;;;11.30;79.10;;;;;;5071641;28;20071;-74
2021/10/17 08:00:37;;;;;;;12.50;5.35;;;11.40;79.00;;;;;;5071610;28;20021;-75
2021/10/17 08:03:03;;;;;;;11.40;4.90;;;11.50;78.80;;;;;;5029689;28;20059;-75
2021/10/17 08:05:29;;;;;;;12.35;5.55;;;11.60;78.80;;;;;;5072682;28;20029;-75
2021/10/17 08:07:54;;;;;;;13.82;5.50;;;11.70;78.60;;;;;;5026102;28;20460;-74
2021/10/17 08:10:20;;;;;;;10.57;4.80;;;11.70;78.10;;;;;;5054704;28;20102;-74
2021/10/17 08:12:46;;;;;;;9.25;4.63;;;11.70;78.00;;;;;;5069293;28;20036;-75
2021/10/17 08:15:12;;;;;;;13.23;5.60;;;11.80;77.90;;;;;;5075832;28;20035;-75
2021/10/17 08:17:38;;;;;;;12.30;5.38;;;11.80;77.50;;;;;;5075810;28;20578;-74
2021/10/17 08:20:05;;;;;;;12.40;5.80;;;11.90;77.50;;;;;;5074462;28;20017;-74
2021/10/17 08:22:32;;;;;;;12.85;5.93;;;11.90;77.30;;;;;;5074842;28;20016;-74
2021/10/17 08:24:58;;;;;;;15.90;5.53;;;12.00;77.10;;;;;;5058045;28;20056;-76
2021/10/17 08:27:24;;;;;;;12.77;5.10;;;12.00;76.70;;;;;;5074043;28;20067;-75
2021/10/17 08:29:49;;;;;;;11.68;4.80;;;11.90;76.20;;;;;;5073680;28;20361;-76
2021/10/17 08:32:15;;;;;;;17.30;5.60;;;12.00;76.20;;;;;;5074880;28;20036;-76
2021/10/17 08:34:41;;;;;;;11.70;4.97;;;12.00;76.30;;;;;;5074243;28;20028;-76
2021/10/17 08:37:06;;;;;;;13.88;5.35;;;12.10;76.40;;;;;;5060004;28;20056;-76
2021/10/17 08:39:32;;;;;;;12.95;6.18;;;12.10;76.30;;;;;;5054225;28;20090;-76
2021/10/17 08:41:58;;;;;;;17.17;5.68;;;12.20;76.30;;;;;;5066947;28;20056;-75
2021/10/17 08:44:23;;;;;;;12.15;5.95;;;12.20;75.50;;;;;;5056712;28;20099;-77
2021/10/17 08:46:50;;;;;;;13.27;5.57;;;12.20;75.40;;;;;;5057505;28;20032;-75
2021/10/17 08:49:21;;;;;;;14.20;5.97;;;12.20;75.50;;;;;;5075614;28;20033;-76
2021/10/17 08:51:47;;;;;;;10.77;4.72;;;12.20;75.20;;;;;;5075241;28;20350;-77
2021/10/17 08:54:13;;;;;;;13.60;4.78;;;12.20;75.80;;;;;;5057381;28;20025;-75
2021/10/17 08:56:39;;;;;;;13.07;5.20;;;12.20;75.10;;;;;;5073811;28;20103;-75
2021/10/17 08:59:04;;;;;;;14.00;5.05;;;12.30;75.10;;;;;;5073600;28;20542;-76
2021/10/17 09:01:36;;;;;;;13.85;5.50;;;12.30;75.20;;;;;;5073991;28;20025;-77
2021/10/17 09:04:03;;;;;;;9.30;4.78;;;12.40;75.90;;;;;;5068695;28;20100;-75
2021/10/17 09:06:34;;;;;;;11.98;5.72;;;12.40;75.10;;;;;;5063421;28;20025;-76
2021/10/17 09:09:15;;;;;;;10.57;5.18;;;12.50;75.00;;;;;;5066987;28;20074;-76
2021/10/17 09:11:49;;;;;;;16.02;5.65;;;12.50;75.00;;;;;;5060514;28;20119;-76
2021/10/17 09:14:19;;;;;;;;;;;12.60;74.80;;;;;;5066106;28;20032;-77
2021/10/17 09:16:49;;;;;;;11.88;5.40;;;12.60;74.20;;;;;;5069920;28;20011;-77
2021/10/17 09:19:36;;;;;;;13.30;5.15;;;12.70;74.30;;;;;;5056424;28;20029;-77
2021/10/17 09:22:07;;;;;;;10.93;4.97;;;12.70;74.20;;;;;;5072990;28;20033;-77
2021/10/17 09:24:36;;;;;;;9.85;4.72;;;12.80;74.10;;;;;;5074579;28;20032;-76
2021/10/17 09:27:07;;;;;;;12.98;4.72;;;12.90;74.00;;;;;;5073371;28;20429;-76
2021/10/17 09:29:34;;;;;;;10.32;4.13;;;12.90;74.00;;;;;;5074141;28;20495;-76
2021/10/17 09:32:00;;;;;;;10.10;4.47;;;13.00;73.60;;;;;;5072245;28;20123;-73
2021/10/17 09:34:29;;;;;;;10.93;4.35;;;13.10;73.40;;;;;;5063673;28;20544;-76
2021/10/17 09:37:12;;;;;;;9.32;4.05;;;13.10;73.20;;;;;;5073173;28;20021;-75
2021/10/17 09:39:46;;;;;;;10.45;3.85;;;13.20;73.00;;;;;;5072967;28;20039;-75
2021/10/17 09:42:19;;;;;;;13.38;4.13;;;13.30;72.50;;;;;;5071573;28;20093;-75
2021/10/17 09:44:45;;;;;;;11.88;4.68;;;13.30;72.30;;;;;;5052366;28;20051;-76
2021/10/17 09:47:10;;;;;;;11.45;4.47;;;13.30;71.80;;;;;;5073389;28;20037;-74
2021/10/17 09:49:36;;;;;;;10.48;4.97;;;13.30;71.80;;;;;;5073787;28;20040;-74
2021/10/17 09:52:20;;;;;;;10.38;4.53;;;13.30;71.60;;;;;;5073635;28;20044;-75
2021/10/17 09:54:47;;;;;;;13.93;4.57;;;13.40;71.40;;;;;;5072808;28;20121;-75
2021/10/17 09:57:13;;;;;;;14.07;4.85;;;13.50;70.70;;;;;;5074275;28;20095;-75
2021/10/17 09:59:39;;;;;;;13.77;4.90;;;13.50;70.60;;;;;;5073655;28;20104;-74
2021/10/17 10:02:09;;;;;;;12.60;4.65;;;13.50;70.50;;;;;;5052399;28;20013;-74
2021/10/17 10:04:39;;;;;;;11.43;4.35;;;13.60;70.60;;;;;;5065394;28;20017;-74
2021/10/17 10:07:06;;;;;;;9.40;4.57;;;13.70;70.50;;;;;;5062775;28;20025;-74
2021/10/17 10:09:32;;;;;;;11.40;4.35;;;13.80;69.90;;;;;;5060234;28;20017;-74
2021/10/17 10:11:58;;;;;;;11.00;5.40;;;13.90;69.70;;;;;;5034968;28;20060;-75
2021/10/17 10:14:24;;;;;;;13.27;4.22;;;13.90;69.40;;;;;;5053392;28;20029;-75
2021/10/17 10:16:55;;;;;;;13.32;4.85;;;13.90;69.10;;;;;;5070077;28;20128;-75
2021/10/17 10:19:20;;;;;;;10.60;5.20;;;14.00;68.60;;;;;;5070611;28;20480;-75
2021/10/17 10:21:46;;;;;;;10.10;5.10;;;14.00;68.80;;;;;;5067188;28;20055;-77
2021/10/17 10:24:12;;;;;;;13.13;4.95;;;14.00;68.90;;;;;;5062204;28;20025;-77
2021/10/17 10:26:41;;;;;;;12.75;5.00;;;14.10;68.80;;;;;;5073646;28;20544;-77
2021/10/17 10:29:07;;;;;;;15.38;5.03;;;14.10;68.90;;;;;;5057890;28;20025;-75
2021/10/17 10:31:47;;;;;;;11.52;5.10;;;14.20;68.90;;;;;;5053603;28;20079;-75
2021/10/17 10:34:36;;;;;;;13.98;5.28;;;14.30;68.80;;;;;;5053509;28;20025;-74
2021/10/17 10:37:15;;;;;;;9.25;4.75;;;14.30;68.40;;;;;;5058262;28;20512;-76
2021/10/17 10:40:00;;;;;;;10.48;4.32;;;14.40;68.80;;;;;;5051487;28;20032;-76
2021/10/17 10:42:37;;;;;;;15.90;4.78;;;14.40;68.30;;;;;;5066164;28;20025;-76
2021/10/17 10:45:24;;;;;;;10.88;4.78;;;14.50;68.10;;;;;;5055303;28;20036;-75
2021/10/17 10:48:11;;;;;;;10.40;5.18;;;14.60;68.10;;;;;;5062448;28;20540;-75
2021/10/17 10:50:49;;;;;;;8.45;4.28;;;14.60;67.60;;;;;;5071836;28;20051;-77
2021/10/17 10:53:48;;;;;;;10.65;4.93;;;14.60;67.50;;;;;;5070801;28;20036;-76
2021/10/17 10:56:39;;;;;;;11.60;4.72;;;14.70;67.40;;;;;;5067443;28;20043;-75
2021/10/17 10:59:06;;;;;;;13.85;4.57;;;14.70;67.60;;;;;;5051830;28;20067;-75
2021/10/17 11:02:00;;;;;;;10.00;4.63;;;14.80;67.60;;;;;;5065418;28;20065;-73
2021/10/17 11:04:41;;;;;;;12.27;4.45;;;14.90;66.90;;;;;;5067249;28;20033;-75
2021/10/17 11:07:16;;;;;;;9.75;4.80;;;15.00;66.00;;;;;;5053443;28;20075;-75
2021/10/17 11:09:41;;;;;;;10.07;4.18;;;15.10;66.00;;;;;;5068053;28;20416;-75
2021/10/17 11:12:08;;;;;;;12.05;4.05;;;15.10;66.80;;;;;;5067761;28;20049;-75
2021/10/17 11:14:34;;;;;;;8.98;3.90;;;15.30;66.30;;;;;;5051144;28;20421;-75
2021/10/17 11:17:06;;;;;;;11.60;3.72;;;15.40;66.10;;;;;;5053032;28;20029;-76
2021/10/17 11:19:35;;;;;;;10.07;4.07;;;15.60;65.80;;;;;;5035055;28;20082;-76
2021/10/17 11:22:04;;;;;;;10.27;3.85;;;15.80;65.70;;;;;;5035172;28;20022;-80
2021/10/17 11:24:31;;;;;;;8.65;3.22;;;16.00;65.00;;;;;;5060724;28;20058;-77
2021/10/17 11:27:13;;;;;;;7.68;3.33;;;16.20;64.90;;;;;;5055745;28;20127;-77
2021/10/17 11:29:40;;;;;;;10.40;3.40;;;16.60;64.10;;;;;;5056033;28;20047;-77
2021/10/17 11:32:10;;;;;;;7.05;1.83;;;17.20;64.70;;;;;;5054085;28;20058;-77
2021/10/17 11:34:36;;;;;;;7.55;3.60;;;17.90;64.00;;;;;;5054844;28;20032;-75
2021/10/17 11:37:18;;;;;;;7.72;3.08;;;18.40;62.50;;;;;;5056078;28;20031;-76
2021/10/17 11:40:03;;;;;;;6.22;2.45;;;19.00;60.30;;;;;;5054609;28;20098;-77
2021/10/17 11:42:43;;;;;;;6.20;2.05;;;19.60;59.90;;;;;;5055930;28;20051;-76
2021/10/17 11:45:24;;;;;;;3.17;1.77;;;20.40;58.00;;;;;;5071776;28;20469;-76
2021/10/17 11:47:51;;;;;;;7.65;2.38;;;20.90;57.10;;;;;;5060423;28;20025;-77
2021/10/17 11:50:30;;;;;;;6.68;1.92;;;21.40;56.00;;;;;;5054525;28;20457;-75
2021/10/17 11:52:58;;;;;;;7.82;2.60;;;21.90;53.30;;;;;;5054709;28;20025;-77
2021/10/17 11:55:53;;;;;;;6.40;2.13;;;22.30;52.70;;;;;;5056156;28;20028;-77
2021/10/17 11:58:21;;;;;;;8.05;2.15;;;22.90;51.30;;;;;;5047250;28;20053;-76
2021/10/17 12:00:49;;;;;;;6.57;2.08;;;23.20;51.40;;;;;;5061092;28;20051;-76
2021/10/17 12:03:23;;;;;;;5.22;2.30;;;23.50;50.50;;;;;;5071528;28;20032;-76
2021/10/17 12:05:51;;;;;;;6.03;2.38;;;23.80;48.70;;;;;;5055747;28;20013;-74
2021/10/17 12:08:21;;;;;;;6.90;2.42;;;23.90;48.50;;;;;;5070509;28;20028;-78
2021/10/17 12:11:11;;;;;;;5.43;1.95;;;24.00;47.60;;;;;;5074564;28;20044;-76
2021/10/17 12:13:46;;;;;;;7.50;2.58;;;23.80;47.00;;;;;;5075718;28;20077;-77
2021/10/17 12:16:22;;;;;;;4.93;1.60;;;23.60;46.20;;;;;;5073770;28;20032;-77
2021/10/17 12:19:05;;;;;;;9.25;2.95;;;23.20;45.80;;;;;;5060928;28;20090;-75
2021/10/17 12:21:39;;;;;;;7.57;2.63;;;22.70;45.00;;;;;;5054941;28;20028;-77
2021/10/17 12:24:06;;;;;;;8.82;2.67;;;22.10;45.50;;;;;;5055895;28;20020;-77
2021/10/17 12:26:35;;;;;;;8.95;2.47;;;21.60;45.90;;;;;;5054447;28;20388;-76
2021/10/17 12:29:12;;;;;;;9.90;3.42;;;21.20;46.90;;;;;;5055781;28;20032;-76
2021/10/17 12:31:44;;;;;;;7.15;3.15;;;20.80;47.30;;;;;;5054587;28;20017;-74
2021/10/17 12:34:11;;;;;;;7.00;3.22;;;20.40;47.70;;;;;;5054960;28;20062;-76
2021/10/17 12:36:39;;;;;;;7.55;2.80;;;20.20;48.10;;;;;;5055375;28;20028;-77
2021/10/17 12:39:13;;;;;;;7.30;3.30;;;19.80;48.50;;;;;;5055811;28;20029;-75
2021/10/17 12:41:40;;;;;;;6.65;2.63;;;19.60;49.20;;;;;;5054195;28;20025;-77